createdAt,value
2018-07-01T00:00:25.940Z,53.99
2018-07-01T00:01:25.321Z,54.17
2018-07-01T00:02:25.227Z,54.56
2018-07-01T00:03:25.144Z,54.75
2018-07-01T00:04:25.101Z,54.75
2018-07-01T00:05:24.993Z,55.33
2018-07-01T00:06:24.922Z,54.94
2018-07-01T00:07:25.416Z,54.37
2018-07-01T00:08:24.771Z,56.09
2018-07-01T00:09:24.712Z,55.04
2018-07-01T00:10:24.621Z,55.13
2018-07-01T00:11:24.567Z,54.56
2018-07-01T00:12:24.475Z,55.33
2018-07-01T00:13:24.421Z,54.56
2018-07-01T00:14:24.329Z,54.08
2018-07-01T00:15:24.245Z,54.66
2018-07-01T00:16:24.172Z,54.46
2018-07-01T00:17:24.098Z,54.46
2018-07-01T00:18:24.049Z,54.75
2018-07-01T00:19:23.950Z,53.60
2018-07-01T00:20:23.872Z,54.37
2018-07-01T00:21:23.797Z,54.37
2018-07-01T00:22:23.723Z,55.23
2018-07-01T00:23:23.650Z,54.46
2018-07-01T00:24:23.573Z,55.23
2018-07-01T00:25:23.496Z,55.13
2018-07-01T00:26:23.425Z,54.94
2018-07-01T00:27:23.349Z,55.71
2018-07-01T00:28:23.280Z,55.13
2018-07-01T00:29:23.198Z,54.37
2018-07-01T00:30:23.123Z,54.37
2018-07-01T00:31:23.051Z,54.34
2018-07-01T00:32:22.976Z,55.42
2018-07-01T00:33:22.909Z,54.44
2018-07-01T00:34:22.824Z,54.46
2018-07-01T00:35:22.748Z,54.24
2018-07-01T00:36:22.674Z,54.15
2018-07-01T00:37:22.604Z,54.91
2018-07-01T00:38:22.527Z,55.11
2018-07-01T00:39:22.452Z,55.11
2018-07-01T00:40:22.374Z,55.01
2018-07-01T00:41:22.320Z,55.11
2018-07-01T00:42:22.228Z,54.34
2018-07-01T00:43:22.171Z,54.53
2018-07-01T00:44:22.074Z,56.16
2018-07-01T00:45:21.998Z,56.07
2018-07-01T00:46:21.923Z,55.78
2018-07-01T00:47:21.849Z,55.97
2018-07-01T00:48:21.779Z,57.41
2018-07-01T00:49:21.698Z,55.58
2018-07-01T00:50:21.623Z,55.30
2018-07-01T00:51:21.548Z,56.54
2018-07-01T00:52:21.474Z,55.97
2018-07-01T00:53:21.402Z,55.11
2018-07-01T00:54:21.322Z,55.87
2018-07-01T00:55:21.247Z,56.07
2018-07-01T00:56:21.180Z,56.45
2018-07-01T00:57:21.098Z,56.23
2018-07-01T00:58:21.026Z,56.61
2018-07-01T00:59:20.947Z,57.38
2018-07-01T01:00:20.872Z,57.38
2018-07-01T01:01:20.798Z,58.34
2018-07-01T01:02:20.722Z,57.67
2018-07-01T01:03:20.653Z,57.67
2018-07-01T01:04:20.571Z,57.28
2018-07-01T01:05:20.498Z,57.86
2018-07-01T01:06:20.423Z,58.05
2018-07-01T01:07:20.346Z,58.62
2018-07-01T01:08:20.284Z,58.62
2018-07-01T01:09:20.198Z,58.44
2018-07-01T01:10:20.126Z,57.86
2018-07-01T01:11:20.044Z,58.44
2018-07-01T01:12:19.974Z,58.24
2018-07-01T01:13:19.893Z,58.34
2018-07-01T01:14:19.819Z,58.59
2018-07-01T01:15:19.746Z,58.40
2018-07-01T01:16:19.681Z,58.34
2018-07-01T01:17:19.599Z,58.24
2018-07-01T01:18:19.517Z,58.31
2018-07-01T01:19:19.444Z,58.24
2018-07-01T01:20:19.364Z,57.76
2018-07-01T01:21:19.299Z,57.86
2018-07-01T01:22:19.218Z,58.72
2018-07-01T01:23:19.142Z,59.01
2018-07-01T01:24:19.063Z,58.62
2018-07-01T01:25:18.990Z,58.40
2018-07-01T01:26:18.935Z,59.11
2018-07-01T01:27:18.838Z,59.77
2018-07-01T01:28:18.765Z,59.20
2018-07-01T01:29:18.686Z,59.58
2018-07-01T01:30:18.613Z,61.31
2018-07-01T01:31:18.536Z,59.77
2018-07-01T01:32:18.460Z,58.91
2018-07-01T01:33:18.390Z,59.39
2018-07-01T01:34:18.309Z,61.50
2018-07-01T01:35:18.235Z,59.87
2018-07-01T01:36:18.177Z,60.73
2018-07-01T01:37:18.091Z,60.54
2018-07-01T01:38:18.010Z,59.68
2018-07-01T01:39:17.934Z,59.58
2018-07-01T01:40:17.861Z,60.54
2018-07-01T01:41:17.781Z,59.68
2018-07-01T01:42:17.710Z,58.62
2018-07-01T01:43:17.637Z,58.44
2018-07-01T01:44:17.553Z,59.39
2018-07-01T01:45:17.495Z,58.98
2018-07-01T01:46:17.409Z,58.50
2018-07-01T01:47:17.331Z,59.17
2018-07-01T01:48:17.257Z,58.59
2018-07-01T01:49:17.179Z,58.59
2018-07-01T01:50:17.152Z,58.98
2018-07-01T01:51:17.027Z,58.79
2018-07-01T01:52:16.952Z,59.94
2018-07-01T01:53:16.878Z,59.94
2018-07-01T01:54:16.799Z,59.75
2018-07-01T01:55:16.723Z,59.55
2018-07-01T01:56:16.672Z,59.17
2018-07-01T01:57:16.573Z,59.27
2018-07-01T01:58:16.500Z,59.65
2018-07-01T01:59:16.422Z,59.55
2018-07-01T02:00:16.349Z,59.84
2018-07-01T02:01:16.271Z,59.08
2018-07-01T02:02:16.194Z,59.94
2018-07-01T02:03:16.121Z,62.14
2018-07-01T02:04:16.049Z,61.18
2018-07-01T02:05:15.970Z,61.94
2018-07-01T02:06:15.893Z,61.37
2018-07-01T02:07:15.823Z,61.08
2018-07-01T02:08:15.743Z,60.61
2018-07-01T02:09:15.670Z,60.13
2018-07-01T02:10:16.453Z,60.80
2018-07-01T02:11:15.514Z,60.80
2018-07-01T02:12:15.456Z,61.28
2018-07-01T02:13:15.366Z,62.43
2018-07-01T02:14:15.288Z,62.71
2018-07-01T02:15:15.211Z,62.14
2018-07-01T02:16:15.137Z,62.23
2018-07-01T02:17:15.068Z,62.52
2018-07-01T02:18:14.989Z,62.14
2018-07-01T02:19:14.908Z,62.62
2018-07-01T02:20:14.829Z,63.96
2018-07-01T02:21:14.755Z,63.67
2018-07-01T02:22:14.695Z,62.71
2018-07-01T02:23:14.607Z,63.96
2018-07-01T02:24:14.530Z,62.71
2018-07-01T02:25:14.453Z,61.37
2018-07-01T02:26:14.396Z,60.99
2018-07-01T02:27:14.302Z,60.70
2018-07-01T02:28:14.233Z,60.86
2018-07-01T02:29:14.148Z,62.33
2018-07-01T02:30:14.077Z,61.08
2018-07-01T02:31:14.004Z,60.70
2018-07-01T02:32:13.921Z,61.82
2018-07-01T02:33:13.852Z,60.77
2018-07-01T02:34:13.769Z,61.72
2018-07-01T02:35:13.720Z,61.91
2018-07-01T02:36:13.620Z,61.91
2018-07-01T02:37:13.544Z,61.34
2018-07-01T02:38:13.470Z,61.34
2018-07-01T02:39:13.391Z,62.59
2018-07-01T02:40:13.315Z,63.45
2018-07-01T02:41:13.239Z,65.17
2018-07-01T02:42:13.189Z,63.35
2018-07-01T02:43:13.089Z,64.02
2018-07-01T02:44:13.010Z,63.83
2018-07-01T02:45:12.943Z,63.54
2018-07-01T02:46:12.864Z,63.64
2018-07-01T02:47:12.785Z,64.12
2018-07-01T02:48:12.709Z,66.99
2018-07-01T02:49:12.630Z,68.71
2018-07-01T02:50:12.553Z,69.29
2018-07-01T02:51:12.479Z,68.90
2018-07-01T02:52:12.400Z,67.76
2018-07-01T02:53:12.326Z,67.27
2018-07-01T02:54:12.256Z,66.99
2018-07-01T02:55:12.175Z,67.47
2018-07-01T02:56:12.099Z,69.00
2018-07-01T02:57:12.023Z,68.23
2018-07-01T02:58:11.951Z,68.80
2018-07-01T02:59:11.874Z,68.52
2018-07-01T03:00:11.798Z,69.29
2018-07-01T03:01:11.719Z,68.71
2018-07-01T03:02:11.642Z,68.71
2018-07-01T03:03:11.571Z,68.90
2018-07-01T03:04:11.516Z,68.90
2018-07-01T03:05:11.414Z,68.62
2018-07-01T03:06:11.336Z,69.19
2018-07-01T03:07:11.261Z,69.35
2018-07-01T03:08:11.185Z,70.81
2018-07-01T03:09:11.123Z,69.73
2018-07-01T03:10:11.040Z,69.35
2018-07-01T03:11:10.957Z,69.15
2018-07-01T03:12:10.885Z,68.39
2018-07-01T03:13:10.807Z,70.50
2018-07-01T03:14:10.727Z,68.20
2018-07-01T03:15:10.650Z,68.29
2018-07-01T03:16:10.576Z,68.96
2018-07-01T03:17:10.505Z,68.96
2018-07-01T03:18:10.425Z,70.11
2018-07-01T03:19:10.369Z,70.01
2018-07-01T03:20:10.281Z,70.40
2018-07-01T03:21:10.194Z,69.44
2018-07-01T03:22:10.117Z,68.77
2018-07-01T03:23:10.041Z,68.68
2018-07-01T03:24:09.973Z,70.87
2018-07-01T03:25:09.890Z,70.01
2018-07-01T03:26:09.817Z,70.11
2018-07-01T03:27:09.735Z,70.11
2018-07-01T03:28:09.660Z,69.25
2018-07-01T03:29:09.587Z,69.06
2018-07-01T03:30:09.575Z,69.92
2018-07-01T03:31:09.431Z,68.58
2018-07-01T03:32:09.358Z,67.24
2018-07-01T03:33:09.279Z,68.77
2018-07-01T03:34:09.201Z,69.44
2018-07-01T03:35:09.130Z,68.87
2018-07-01T03:36:09.062Z,69.73
2018-07-01T03:37:09.477Z,70.78
2018-07-01T03:38:08.895Z,70.30
2018-07-01T03:39:08.819Z,69.73
2018-07-01T03:40:08.747Z,71.42
2018-07-01T03:41:08.667Z,71.64
2018-07-01T03:42:08.596Z,71.61
2018-07-01T03:43:08.514Z,73.94
2018-07-01T03:44:08.445Z,73.08
2018-07-01T03:45:08.361Z,72.22
2018-07-01T03:46:08.300Z,72.02
2018-07-01T03:47:08.208Z,72.22
2018-07-01T03:48:08.133Z,72.12
2018-07-01T03:49:08.060Z,71.64
2018-07-01T03:50:08.051Z,71.26
2018-07-01T03:51:07.923Z,70.40
2018-07-01T03:52:07.834Z,70.78
2018-07-01T03:53:07.753Z,71.64
2018-07-01T03:54:07.677Z,72.12
2018-07-01T03:55:07.597Z,72.02
2018-07-01T03:56:07.522Z,71.73
2018-07-01T03:57:07.460Z,69.54
2018-07-01T03:58:07.367Z,68.01
2018-07-01T03:59:07.292Z,66.86
2018-07-01T04:00:07.215Z,66.67
2018-07-01T04:01:07.140Z,66.19
2018-07-01T04:02:07.085Z,66.38
2018-07-01T04:03:06.989Z,67.53
2018-07-01T04:04:06.909Z,67.82
2018-07-01T04:05:06.833Z,67.24
2018-07-01T04:06:06.757Z,67.14
2018-07-01T04:07:06.681Z,70.78
2018-07-01T04:08:06.604Z,70.11
2018-07-01T04:09:06.538Z,68.39
2018-07-01T04:10:06.455Z,68.49
2018-07-01T04:11:06.373Z,67.53
2018-07-01T04:12:06.302Z,67.63
2018-07-01T04:13:06.240Z,68.49
2018-07-01T04:14:06.157Z,66.96
2018-07-01T04:15:06.068Z,64.85
2018-07-01T04:16:05.992Z,63.99
2018-07-01T04:17:05.916Z,64.75
2018-07-01T04:18:05.848Z,66.47
2018-07-01T04:19:05.767Z,67.24
2018-07-01T04:20:05.686Z,66.96
2018-07-01T04:21:05.612Z,69.64
2018-07-01T04:22:05.535Z,68.87
2018-07-01T04:23:05.481Z,69.44
2018-07-01T04:24:05.386Z,69.25
2018-07-01T04:25:05.307Z,67.91
2018-07-01T04:26:05.250Z,67.63
2018-07-01T04:27:05.154Z,68.39
2018-07-01T04:28:05.079Z,66.76
2018-07-01T04:29:05.005Z,65.36
2018-07-01T04:30:04.925Z,65.36
2018-07-01T04:31:04.918Z,64.98
2018-07-01T04:32:04.773Z,65.36
2018-07-01T04:33:04.929Z,64.22
2018-07-01T04:34:04.621Z,64.31
2018-07-01T04:35:04.544Z,62.68
2018-07-01T04:36:04.469Z,62.68
2018-07-01T04:37:04.391Z,62.11
2018-07-01T04:38:04.314Z,62.97
2018-07-01T04:39:04.242Z,61.72
2018-07-01T04:40:04.162Z,62.77
2018-07-01T04:41:04.088Z,63.26
2018-07-01T04:42:04.014Z,65.26
2018-07-01T04:43:03.933Z,63.64
2018-07-01T04:44:03.862Z,65.17
2018-07-01T04:45:03.785Z,64.02
2018-07-01T04:46:03.705Z,63.45
2018-07-01T04:47:03.631Z,64.12
2018-07-01T04:48:03.557Z,65.55
2018-07-01T04:49:03.481Z,65.45
2018-07-01T04:50:03.403Z,66.22
2018-07-01T04:51:03.325Z,67.27
2018-07-01T04:52:03.256Z,68.13
2018-07-01T04:53:03.174Z,70.43
2018-07-01T04:54:03.106Z,72.16
2018-07-01T04:55:03.089Z,70.62
2018-07-01T04:56:02.947Z,70.43
2018-07-01T04:57:02.874Z,71.58
2018-07-01T04:58:02.801Z,71.68
2018-07-01T04:59:02.718Z,69.57
2018-07-01T05:00:02.649Z,70.24
2018-07-01T05:01:02.573Z,69.86
2018-07-01T05:02:02.509Z,70.34
2018-07-01T05:03:02.418Z,70.34
2018-07-01T05:04:02.343Z,69.99
2018-07-01T05:05:02.277Z,68.52
2018-07-01T05:06:02.188Z,68.07
2018-07-01T05:07:02.112Z,67.79
2018-07-01T05:08:02.037Z,67.37
2018-07-01T05:09:01.967Z,68.55
2018-07-01T05:10:01.932Z,66.45
2018-07-01T05:11:01.817Z,66.16
2018-07-01T05:12:01.761Z,64.15
2018-07-01T05:13:01.662Z,66.93
2018-07-01T05:14:01.587Z,68.65
2018-07-01T05:15:01.509Z,67.02
2018-07-01T05:16:01.444Z,65.30
2018-07-01T05:17:01.409Z,65.58
2018-07-01T05:18:01.289Z,65.58
2018-07-01T05:19:02.008Z,63.67
2018-07-01T05:20:01.131Z,64.63
2018-07-01T05:21:01.057Z,63.67
2018-07-01T05:22:00.979Z,63.67
2018-07-01T05:23:00.905Z,63.76
2018-07-01T05:24:00.829Z,63.96
2018-07-01T05:25:00.768Z,65.49
2018-07-01T05:26:00.698Z,67.41
2018-07-01T05:27:00.601Z,69.70
2018-07-01T05:28:00.524Z,68.36
2018-07-01T05:29:00.453Z,68.07
2018-07-01T05:30:00.376Z,71.91
2018-07-01T05:31:00.297Z,70.76
2018-07-01T05:32:00.222Z,68.74
2018-07-01T05:33:00.149Z,66.35
2018-07-01T05:34:00.072Z,67.69
2018-07-01T05:35:00.002Z,66.35
2018-07-01T05:35:59.923Z,65.97
2018-07-01T05:36:59.846Z,63.86
2018-07-01T05:37:59.780Z,68.68
2018-07-01T05:38:59.695Z,68.68
2018-07-01T05:39:59.618Z,65.97
2018-07-01T05:40:59.552Z,67.02
2018-07-01T05:41:59.470Z,67.63
2018-07-01T05:42:59.394Z,67.25
2018-07-01T05:43:59.324Z,69.74
2018-07-01T05:44:59.245Z,67.34
2018-07-01T05:45:59.171Z,69.07
2018-07-01T05:46:59.097Z,67.82
2018-07-01T05:47:59.014Z,70.50
2018-07-01T05:48:58.939Z,67.05
2018-07-01T05:49:58.869Z,65.52
2018-07-01T05:50:58.800Z,66.67
2018-07-01T05:51:58.714Z,64.09
2018-07-01T05:52:58.637Z,61.88
2018-07-01T05:53:58.565Z,62.74
2018-07-01T05:54:58.493Z,64.66
2018-07-01T05:55:58.413Z,64.09
2018-07-01T05:56:58.339Z,67.05
2018-07-01T05:57:58.282Z,66.19
2018-07-01T05:58:58.187Z,65.33
2018-07-01T05:59:58.114Z,66.48
2018-07-01T06:00:58.047Z,65.33
2018-07-01T06:01:57.964Z,65.55
2018-07-01T06:02:57.885Z,65.62
2018-07-01T06:03:57.813Z,64.40
2018-07-01T06:04:57.737Z,62.68
2018-07-01T06:05:57.661Z,62.77
2018-07-01T06:06:57.589Z,61.82
2018-07-01T06:07:57.512Z,64.31
2018-07-01T06:08:57.437Z,64.50
2018-07-01T06:09:57.361Z,62.01
2018-07-01T06:10:57.294Z,60.57
2018-07-01T06:11:57.216Z,63.45
2018-07-01T06:12:57.141Z,63.45
2018-07-01T06:13:57.076Z,63.73
2018-07-01T06:14:56.998Z,61.82
2018-07-01T06:15:56.916Z,60.86
2018-07-01T06:16:56.841Z,62.30
2018-07-01T06:17:56.763Z,60.99
2018-07-01T06:18:56.689Z,60.09
2018-07-01T06:19:56.612Z,61.63
2018-07-01T06:20:56.540Z,63.38
2018-07-01T06:21:56.464Z,63.38
2018-07-01T06:22:56.392Z,62.23
2018-07-01T06:23:56.315Z,61.37
2018-07-01T06:24:56.243Z,62.04
2018-07-01T06:25:56.169Z,62.71
2018-07-01T06:26:56.092Z,66.35
2018-07-01T06:27:56.016Z,65.11
2018-07-01T06:28:55.941Z,61.85
2018-07-01T06:29:55.869Z,63.96
2018-07-01T06:30:55.790Z,60.70
2018-07-01T06:31:55.719Z,60.22
2018-07-01T06:32:55.745Z,59.45
2018-07-01T06:33:55.609Z,59.64
2018-07-01T06:34:55.491Z,61.94
2018-07-01T06:35:55.432Z,60.53
2018-07-01T06:36:55.342Z,59.93
2018-07-01T06:37:55.266Z,58.62
2018-07-01T06:38:55.194Z,57.56
2018-07-01T06:39:55.119Z,59.48
2018-07-01T06:40:55.048Z,60.15
2018-07-01T06:41:54.987Z,59.96
2018-07-01T06:42:54.895Z,59.77
2018-07-01T06:43:54.822Z,60.05
2018-07-01T06:44:54.764Z,59.86
2018-07-01T06:45:54.672Z,59.58
2018-07-01T06:46:54.597Z,58.23
2018-07-01T06:47:54.522Z,56.79
2018-07-01T06:48:54.449Z,58.71
2018-07-01T06:49:54.391Z,56.70
2018-07-01T06:50:54.299Z,55.83
2018-07-01T06:51:54.226Z,55.74
2018-07-01T06:52:54.170Z,56.02
2018-07-01T06:53:54.081Z,56.70
2018-07-01T06:54:54.005Z,56.60
2018-07-01T06:55:53.928Z,55.16
2018-07-01T06:56:53.854Z,54.11
2018-07-01T06:57:53.782Z,55.16
2018-07-01T06:58:53.720Z,54.21
2018-07-01T06:59:53.633Z,57.18
2018-07-01T07:00:53.555Z,55.93
2018-07-01T07:01:53.481Z,52.95
2018-07-01T07:02:53.407Z,53.63
2018-07-01T07:03:53.336Z,54.11
2018-07-01T07:04:53.272Z,55.35
2018-07-01T07:05:53.189Z,55.26
2018-07-01T07:06:53.110Z,54.39
2018-07-01T07:07:53.050Z,53.72
2018-07-01T07:08:52.963Z,52.40
2018-07-01T07:09:52.890Z,52.86
2018-07-01T07:10:52.812Z,51.90
2018-07-01T07:11:52.741Z,51.81
2018-07-01T07:12:52.665Z,52.86
2018-07-01T07:13:52.600Z,51.93
2018-07-01T07:14:52.515Z,52.09
2018-07-01T07:15:52.453Z,52.28
2018-07-01T07:16:52.374Z,50.87
2018-07-01T07:17:52.293Z,51.73
2018-07-01T07:18:52.228Z,51.73
2018-07-01T07:19:52.144Z,50.10
2018-07-01T07:20:52.070Z,48.76
2018-07-01T07:21:51.998Z,48.95
2018-07-01T07:22:51.934Z,50.01
2018-07-01T07:23:51.848Z,50.10
2018-07-01T07:24:51.775Z,50.58
2018-07-01T07:25:51.700Z,50.01
2018-07-01T07:26:51.629Z,50.20
2018-07-01T07:27:51.551Z,50.29
2018-07-01T07:28:51.478Z,50.78
2018-07-01T07:29:51.407Z,48.85
2018-07-01T07:30:51.327Z,48.76
2018-07-01T07:31:51.261Z,49.24
2018-07-01T07:32:51.182Z,48.47
2018-07-01T07:33:51.107Z,47.32
2018-07-01T07:34:51.032Z,48.28
2018-07-01T07:35:50.959Z,50.10
2018-07-01T07:36:50.885Z,49.05
2018-07-01T07:37:50.811Z,46.96
2018-07-01T07:38:50.761Z,47.03
2018-07-01T07:39:50.666Z,46.84
2018-07-01T07:40:50.626Z,47.15
2018-07-01T07:41:50.532Z,48.28
2018-07-01T07:42:50.440Z,48.79
2018-07-01T07:43:50.374Z,47.82
2018-07-01T07:44:50.304Z,48.40
2018-07-01T07:45:50.224Z,47.82
2018-07-01T07:46:50.148Z,48.88
2018-07-01T07:47:50.071Z,48.69
2018-07-01T07:48:49.999Z,49.36
2018-07-01T07:49:49.924Z,50.61
2018-07-01T07:50:49.850Z,49.93
2018-07-01T07:51:49.778Z,50.03
2018-07-01T07:52:49.705Z,49.07
2018-07-01T07:53:49.629Z,49.07
2018-07-01T07:54:49.554Z,49.07
2018-07-01T07:55:49.502Z,50.03
2018-07-01T07:56:49.406Z,50.13
2018-07-01T07:57:49.333Z,50.42
2018-07-01T07:58:49.259Z,51.28
2018-07-01T07:59:49.188Z,50.90
2018-07-01T08:00:49.115Z,50.23
2018-07-01T08:01:49.037Z,50.13
2018-07-01T08:02:48.966Z,50.61
2018-07-01T08:03:48.894Z,50.03
2018-07-01T08:04:48.836Z,48.59
2018-07-01T08:05:48.743Z,49.26
2018-07-01T08:06:48.671Z,50.51
2018-07-01T08:07:48.597Z,50.90
2018-07-01T08:08:48.521Z,51.18
2018-07-01T08:09:48.458Z,50.70
2018-07-01T08:10:48.377Z,51.76
2018-07-01T08:11:48.307Z,50.80
2018-07-01T08:12:48.288Z,49.55
2018-07-01T08:13:48.153Z,49.36
2018-07-01T08:14:48.092Z,49.10
2018-07-01T08:15:48.005Z,47.75
2018-07-01T08:16:47.936Z,47.25
2018-07-01T08:17:47.857Z,46.89
2018-07-01T08:18:47.786Z,47.27
2018-07-01T08:19:47.717Z,48.71
2018-07-01T08:20:47.639Z,48.33
2018-07-01T08:21:47.564Z,48.61
2018-07-01T08:22:47.491Z,49.10
2018-07-01T08:23:47.419Z,47.94
2018-07-01T08:24:47.343Z,47.66
2018-07-01T08:25:47.270Z,46.89
2018-07-01T08:26:47.197Z,47.46
2018-07-01T08:27:47.124Z,47.56
2018-07-01T08:28:47.066Z,47.46
2018-07-01T08:29:47.016Z,47.36
2018-07-01T08:30:46.901Z,47.36
2018-07-01T08:31:46.827Z,46.79
2018-07-01T08:32:46.759Z,46.12
2018-07-01T08:33:46.679Z,45.83
2018-07-01T08:34:46.606Z,46.31
2018-07-01T08:35:46.533Z,46.89
2018-07-01T08:36:46.500Z,46.12
2018-07-01T08:37:46.389Z,46.50
2018-07-01T08:38:46.315Z,45.54
2018-07-01T08:39:46.241Z,45.25
2018-07-01T08:40:46.168Z,44.68
2018-07-01T08:41:46.090Z,46.41
2018-07-01T08:42:46.018Z,47.36
2018-07-01T08:43:45.948Z,48.52
2018-07-01T08:44:45.875Z,48.71
2018-07-01T08:45:45.798Z,50.15
2018-07-01T08:46:45.735Z,50.56
2018-07-01T08:47:45.655Z,50.85
2018-07-01T08:48:45.634Z,50.95
2018-07-01T08:49:45.511Z,50.76
2018-07-01T08:50:45.490Z,49.41
2018-07-01T08:51:45.423Z,47.77
2018-07-01T08:52:45.364Z,46.91
2018-07-01T08:53:45.247Z,46.04
2018-07-01T08:54:45.204Z,45.76
2018-07-01T08:55:45.101Z,46.33
2018-07-01T08:56:44.995Z,47.00
2018-07-01T08:57:44.921Z,46.81
2018-07-01T08:58:44.846Z,49.12
2018-07-01T08:59:44.774Z,52.10
2018-07-01T09:00:44.703Z,51.81
2018-07-01T09:01:44.624Z,52.97
2018-07-01T09:02:44.556Z,52.29
2018-07-01T09:03:44.483Z,51.93
2018-07-01T09:04:44.406Z,51.45
2018-07-01T09:05:44.340Z,50.30
2018-07-01T09:06:44.258Z,48.47
2018-07-01T09:07:44.187Z,46.04
2018-07-01T09:08:44.134Z,46.14
2018-07-01T09:09:44.064Z,44.79
2018-07-01T09:10:43.967Z,45.85
2018-07-01T09:11:43.894Z,45.18
2018-07-01T09:12:43.828Z,46.04
2018-07-01T09:13:43.750Z,46.04
2018-07-01T09:14:43.678Z,46.14
2018-07-01T09:15:43.604Z,45.85
2018-07-01T09:16:43.529Z,47.10
2018-07-01T09:17:43.455Z,47.39
2018-07-01T09:18:43.409Z,47.00
2018-07-01T09:19:43.341Z,47.00
2018-07-01T09:20:43.234Z,47.30
2018-07-01T09:21:43.168Z,48.83
2018-07-01T09:22:43.091Z,50.10
2018-07-01T09:23:43.108Z,50.30
2018-07-01T09:24:42.943Z,49.43
2018-07-01T09:25:42.869Z,50.20
2018-07-01T09:26:42.795Z,50.10
2018-07-01T09:27:42.794Z,49.05
2018-07-01T09:28:42.653Z,48.76
2018-07-01T09:29:42.576Z,49.82
2018-07-01T09:30:42.503Z,49.82
2018-07-01T09:31:42.434Z,48.85
2018-07-01T09:32:42.360Z,49.91
2018-07-01T09:33:42.285Z,49.24
2018-07-01T09:34:42.233Z,48.95
2018-07-01T09:35:42.139Z,48.85
2018-07-01T09:36:42.068Z,48.49
2018-07-01T09:37:42.016Z,48.97
2018-07-01T09:38:41.933Z,48.40
2018-07-01T09:39:41.849Z,48.79
2018-07-01T09:40:42.588Z,47.44
2018-07-01T09:41:41.706Z,46.86
2018-07-01T09:42:41.629Z,47.24
2018-07-01T09:43:41.561Z,45.90
2018-07-01T09:44:41.480Z,43.30
2018-07-01T09:45:41.421Z,44.26
2018-07-01T09:46:41.409Z,46.59
2018-07-01T09:47:41.271Z,47.08
2018-07-01T09:48:41.197Z,44.67
2018-07-01T09:49:42.089Z,43.90
2018-07-01T09:50:41.108Z,44.48
2018-07-01T09:51:40.971Z,44.96
2018-07-01T09:52:40.899Z,45.15
2018-07-01T09:53:40.824Z,46.21
2018-07-01T09:54:40.755Z,45.25
2018-07-01T09:55:40.704Z,44.57
2018-07-01T09:56:40.609Z,46.98
2018-07-01T09:57:40.541Z,47.17
2018-07-01T09:58:40.463Z,47.17
2018-07-01T09:59:40.390Z,47.27
2018-07-01T10:00:40.318Z,48.13
2018-07-01T10:01:40.244Z,47.85
2018-07-01T10:02:40.171Z,46.88
2018-07-01T10:03:40.102Z,46.50
2018-07-01T10:04:40.028Z,48.13
2018-07-01T10:05:39.955Z,47.75
2018-07-01T10:06:39.879Z,46.31
2018-07-01T10:07:39.810Z,47.46
2018-07-01T10:08:39.735Z,45.07
2018-07-01T10:09:39.835Z,44.59
2018-07-01T10:10:39.591Z,45.34
2018-07-01T10:11:39.529Z,45.92
2018-07-01T10:12:39.449Z,45.83
2018-07-01T10:13:39.376Z,47.75
2018-07-01T10:14:39.312Z,48.93
2018-07-01T10:15:39.295Z,48.83
2018-07-01T10:16:39.155Z,46.04
2018-07-01T10:17:39.081Z,46.62
2018-07-01T10:18:39.025Z,47.10
2018-07-01T10:19:38.938Z,47.00
2018-07-01T10:20:38.893Z,45.17
2018-07-01T10:21:38.791Z,44.21
2018-07-01T10:22:38.734Z,44.21
2018-07-01T10:23:38.645Z,46.14
2018-07-01T10:24:38.578Z,47.00
2018-07-01T10:25:38.502Z,46.23
2018-07-01T10:26:38.475Z,44.79
2018-07-01T10:27:38.382Z,44.89
2018-07-01T10:28:38.284Z,45.65
2018-07-01T10:29:38.220Z,44.79
2018-07-01T10:30:38.195Z,44.11
2018-07-01T10:31:38.066Z,47.00
2018-07-01T10:32:37.995Z,46.64
2018-07-01T10:33:37.923Z,45.39
2018-07-01T10:34:37.851Z,44.32
2018-07-01T10:35:37.779Z,45.48
2018-07-01T10:36:37.705Z,45.00
2018-07-01T10:37:37.642Z,42.40
2018-07-01T10:38:37.561Z,43.17
2018-07-01T10:39:37.502Z,44.81
2018-07-01T10:40:37.437Z,45.20
2018-07-01T10:41:37.353Z,44.90
2018-07-01T10:42:37.275Z,44.71
2018-07-01T10:43:37.220Z,44.90
2018-07-01T10:44:37.137Z,45.48
2018-07-01T10:45:37.059Z,43.94
2018-07-01T10:46:36.985Z,44.62
2018-07-01T10:47:36.917Z,42.59
2018-07-01T10:48:36.840Z,42.59
2018-07-01T10:49:36.783Z,43.27
2018-07-01T10:50:36.700Z,41.34
2018-07-01T10:51:36.688Z,43.07
2018-07-01T10:52:36.567Z,42.88
2018-07-01T10:53:36.481Z,43.07
2018-07-01T10:54:36.411Z,43.55
2018-07-01T10:55:36.356Z,43.87
2018-07-01T10:56:36.277Z,43.19
2018-07-01T10:57:36.244Z,41.55
2018-07-01T10:58:36.123Z,43.00
2018-07-01T10:59:36.067Z,43.19
2018-07-01T11:00:36.022Z,45.51
2018-07-01T11:01:35.913Z,45.70
2018-07-01T11:02:35.876Z,44.64
2018-07-01T11:03:35.764Z,42.93
2018-07-01T11:04:35.710Z,41.09
2018-07-01T11:05:35.663Z,43.02
2018-07-01T11:06:35.615Z,42.63
2018-07-01T11:07:35.476Z,41.96
2018-07-01T11:08:35.404Z,41.38
2018-07-01T11:09:35.339Z,41.77
2018-07-01T11:10:35.259Z,41.48
2018-07-01T11:11:35.210Z,43.21
2018-07-01T11:12:35.122Z,43.12
2018-07-01T11:13:35.053Z,39.94
2018-07-01T11:14:34.975Z,40.90
2018-07-01T11:15:34.904Z,41.86
2018-07-01T11:16:34.841Z,43.50
2018-07-01T11:17:34.761Z,44.66
2018-07-01T11:18:34.691Z,42.83
2018-07-01T11:19:34.624Z,41.98
2018-07-01T11:20:34.552Z,42.66
2018-07-01T11:21:34.477Z,40.24
2018-07-01T11:22:34.418Z,39.18
2018-07-01T11:23:34.333Z,38.02
2018-07-01T11:24:34.265Z,39.37
2018-07-01T11:25:34.189Z,39.76
2018-07-01T11:26:34.175Z,39.57
2018-07-01T11:27:34.150Z,40.05
2018-07-01T11:28:33.982Z,41.20
2018-07-01T11:29:33.939Z,40.45
2018-07-01T11:30:33.838Z,41.61
2018-07-01T11:31:33.769Z,40.45
2018-07-01T11:32:33.694Z,41.91
2018-07-01T11:33:33.658Z,39.97
2018-07-01T11:34:33.558Z,40.84
2018-07-01T11:35:33.479Z,40.84
2018-07-01T11:36:33.416Z,42.68
2018-07-01T11:37:33.340Z,40.17
2018-07-01T11:38:33.286Z,40.94
2018-07-01T11:39:33.202Z,40.65
2018-07-01T11:40:33.136Z,39.29
2018-07-01T11:41:33.057Z,39.49
2018-07-01T11:42:33.018Z,38.23
2018-07-01T11:43:32.914Z,40.55
2018-07-01T11:44:32.904Z,40.47
2018-07-01T11:45:32.775Z,40.47
2018-07-01T11:46:32.711Z,41.35
2018-07-01T11:47:32.640Z,42.89
2018-07-01T11:48:32.571Z,42.89
2018-07-01T11:49:32.493Z,40.86
2018-07-01T11:50:32.420Z,38.93
2018-07-01T11:51:32.354Z,38.64
2018-07-01T11:52:32.280Z,37.87
2018-07-01T11:53:32.213Z,38.16
2018-07-01T11:54:32.143Z,38.93
2018-07-01T11:55:32.081Z,38.54
2018-07-01T11:56:31.998Z,37.58
2018-07-01T11:57:31.933Z,39.51
2018-07-01T11:58:31.863Z,39.03
2018-07-01T11:59:31.789Z,39.12
2018-07-01T12:00:31.723Z,39.51
2018-07-01T12:01:31.645Z,40.57
2018-07-01T12:02:31.584Z,41.27
2018-07-01T12:03:31.509Z,39.92
2018-07-01T12:04:31.437Z,37.50
2018-07-01T12:05:31.461Z,38.66
2018-07-01T12:06:31.298Z,38.76
2018-07-01T12:07:31.227Z,39.72
2018-07-01T12:08:31.155Z,39.72
2018-07-01T12:09:31.091Z,39.53
2018-07-01T12:10:31.045Z,39.14
2018-07-01T12:11:30.992Z,38.78
2018-07-01T12:12:30.926Z,40.42
2018-07-01T12:13:30.864Z,39.64
2018-07-01T12:14:30.764Z,40.42
2018-07-01T12:15:30.710Z,39.84
2018-07-01T12:16:30.650Z,37.42
2018-07-01T12:17:30.571Z,37.04
2018-07-01T12:18:30.517Z,36.74
2018-07-01T12:19:30.408Z,37.23
2018-07-01T12:20:31.197Z,36.96
2018-07-01T12:21:30.249Z,35.80
2018-07-01T12:22:30.236Z,36.86
2018-07-01T12:23:30.815Z,38.79
2018-07-01T12:24:30.090Z,37.82
2018-07-01T12:25:29.982Z,38.21
2018-07-01T12:26:30.982Z,38.70
2018-07-01T12:27:29.891Z,36.66
2018-07-01T12:28:29.819Z,36.57
2018-07-01T12:29:29.747Z,36.76
2018-07-01T12:30:29.670Z,35.80
2018-07-01T12:31:29.571Z,35.50
2018-07-01T12:32:29.551Z,35.31
2018-07-01T12:33:29.477Z,35.50
2018-07-01T12:34:29.399Z,34.73
2018-07-01T12:35:29.340Z,34.75
2018-07-01T12:36:29.287Z,35.42
2018-07-01T12:37:29.194Z,35.62
2018-07-01T12:38:29.122Z,38.04
2018-07-01T12:39:29.059Z,37.28
2018-07-01T12:40:29.987Z,37.36
2018-07-01T12:41:28.911Z,34.86
2018-07-01T12:42:28.917Z,35.44
2018-07-01T12:43:28.780Z,33.20
2018-07-01T12:44:28.714Z,33.69
2018-07-01T12:45:28.577Z,36.22
2018-07-01T12:46:28.511Z,35.93
2018-07-01T12:47:28.496Z,36.60
2018-07-01T12:48:28.389Z,36.02
2018-07-01T12:49:28.359Z,38.35
2018-07-01T12:50:28.285Z,37.28
2018-07-01T12:51:28.169Z,36.80